sensor_id;sensor_type;location;lat;lon;timestamp;P1;durP1;ratioP1;P2;durP2;ratioP2
51010;SDS011;37038;50.182;8.624;2024-03-06T00:02:53;16.52;;;11.70;;
51010;SDS011;37038;50.182;8.624;2024-03-06T00:05:54;18.15;;;13.13;;
51010;SDS011;37038;50.182;8.624;2024-03-06T00:09:22;22.30;;;14.05;;
51010;SDS011;37038;50.182;8.624;2024-03-06T00:12:45;18.02;;;13.38;;
51010;SDS011;37038;50.182;8.624;2024-03-06T00:16:11;20.30;;;14.50;;
51010;SDS011;37038;50.182;8.624;2024-03-06T00:19:25;17.15;;;13.43;;
51010;SDS011;37038;50.182;8.624;2024-03-06T00:22:25;18.73;;;14.60;;
51010;SDS011;37038;50.182;8.624;2024-03-06T00:25:26;19.90;;;14.90;;
51010;SDS011;37038;50.182;8.624;2024-03-06T00:28:39;20.83;;;16.85;;
51010;SDS011;37038;50.182;8.624;2024-03-06T00:32:12;25.25;;;19.40;;
51010;SDS011;37038;50.182;8.624;2024-03-06T00:35:28;21.77;;;16.65;;
51010;SDS011;37038;50.182;8.624;2024-03-06T00:38:54;28.27;;;19.25;;
51010;SDS011;37038;50.182;8.624;2024-03-06T00:41:57;22.73;;;16.98;;
51010;SDS011;37038;50.182;8.624;2024-03-06T00:45:12;18.85;;;15.88;;
51010;SDS011;37038;50.182;8.624;2024-03-06T00:48:23;21.15;;;15.70;;
51010;SDS011;37038;50.182;8.624;2024-03-06T00:51:40;23.05;;;18.58;;
51010;SDS011;37038;50.182;8.624;2024-03-06T00:54:52;20.77;;;15.50;;
51010;SDS011;37038;50.182;8.624;2024-03-06T00:58:07;19.10;;;15.30;;
51010;SDS011;37038;50.182;8.624;2024-03-06T01:01:15;22.52;;;16.27;;
51010;SDS011;37038;50.182;8.624;2024-03-06T01:04:30;19.77;;;15.93;;
51010;SDS011;37038;50.182;8.624;2024-03-06T01:07:48;24.73;;;16.95;;
51010;SDS011;37038;50.182;8.624;2024-03-06T01:11:12;24.80;;;16.98;;
51010;SDS011;37038;50.182;8.624;2024-03-06T01:14:14;21.23;;;15.25;;
51010;SDS011;37038;50.182;8.624;2024-03-06T01:17:13;20.42;;;16.02;;
51010;SDS011;37038;50.182;8.624;2024-03-06T01:20:18;20.55;;;15.27;;
51010;SDS011;37038;50.182;8.624;2024-03-06T01:23:43;21.50;;;15.43;;
51010;SDS011;37038;50.182;8.624;2024-03-06T01:29:48;23.27;;;17.15;;
51010;SDS011;37038;50.182;8.624;2024-03-06T01:39:17;22.50;;;16.65;;
51010;SDS011;37038;50.182;8.624;2024-03-06T01:42:39;21.95;;;15.00;;
51010;SDS011;37038;50.182;8.624;2024-03-06T01:45:42;18.85;;;13.18;;
51010;SDS011;37038;50.182;8.624;2024-03-06T01:48:43;15.60;;;11.75;;
51010;SDS011;37038;50.182;8.624;2024-03-06T01:52:27;16.55;;;11.50;;
51010;SDS011;37038;50.182;8.624;2024-03-06T01:55:30;16.48;;;11.30;;
51010;SDS011;37038;50.182;8.624;2024-03-06T01:58:56;15.70;;;11.60;;
51010;SDS011;37038;50.182;8.624;2024-03-06T02:02:29;18.42;;;13.82;;
51010;SDS011;37038;50.182;8.624;2024-03-06T02:05:34;14.55;;;10.70;;
51010;SDS011;37038;50.182;8.624;2024-03-06T02:08:29;13.93;;;9.75;;
51010;SDS011;37038;50.182;8.624;2024-03-06T02:11:24;13.27;;;10.25;;
51010;SDS011;37038;50.182;8.624;2024-03-06T02:14:25;13.98;;;9.50;;
51010;SDS011;37038;50.182;8.624;2024-03-06T02:17:26;13.18;;;10.15;;
51010;SDS011;37038;50.182;8.624;2024-03-06T02:20:32;18.58;;;11.60;;
51010;SDS011;37038;50.182;8.624;2024-03-06T02:23:29;17.45;;;10.40;;
51010;SDS011;37038;50.182;8.624;2024-03-06T02:26:32;14.57;;;10.65;;
51010;SDS011;37038;50.182;8.624;2024-03-06T02:29:24;18.13;;;10.88;;
51010;SDS011;37038;50.182;8.624;2024-03-06T02:32:19;13.18;;;10.02;;
51010;SDS011;37038;50.182;8.624;2024-03-06T02:35:10;21.25;;;12.07;;
51010;SDS011;37038;50.182;8.624;2024-03-06T02:38:23;13.15;;;10.15;;
51010;SDS011;37038;50.182;8.624;2024-03-06T02:41:14;13.43;;;10.33;;
51010;SDS011;37038;50.182;8.624;2024-03-06T02:44:06;13.98;;;9.88;;
51010;SDS011;37038;50.182;8.624;2024-03-06T02:46:56;14.90;;;10.55;;
51010;SDS011;37038;50.182;8.624;2024-03-06T02:49:47;14.48;;;10.65;;
51010;SDS011;37038;50.182;8.624;2024-03-06T02:52:41;14.88;;;10.57;;
51010;SDS011;37038;50.182;8.624;2024-03-06T02:55:29;13.20;;;10.27;;
51010;SDS011;37038;50.182;8.624;2024-03-06T02:58:21;13.35;;;9.48;;
51010;SDS011;37038;50.182;8.624;2024-03-06T03:01:20;17.27;;;10.07;;
51010;SDS011;37038;50.182;8.624;2024-03-06T03:04:12;11.43;;;9.57;;
51010;SDS011;37038;50.182;8.624;2024-03-06T03:07:00;16.58;;;9.45;;
51010;SDS011;37038;50.182;8.624;2024-03-06T03:09:57;16.27;;;11.48;;
51010;SDS011;37038;50.182;8.624;2024-03-06T03:12:50;12.82;;;9.82;;
51010;SDS011;37038;50.182;8.624;2024-03-06T03:15:44;16.13;;;9.85;;
51010;SDS011;37038;50.182;8.624;2024-03-06T03:18:53;12.43;;;10.38;;
51010;SDS011;37038;50.182;8.624;2024-03-06T03:21:58;13.93;;;9.85;;
51010;SDS011;37038;50.182;8.624;2024-03-06T03:24:56;18.20;;;10.65;;
51010;SDS011;37038;50.182;8.624;2024-03-06T03:27:49;13.82;;;10.10;;
51010;SDS011;37038;50.182;8.624;2024-03-06T03:30:47;11.45;;;9.15;;
51010;SDS011;37038;50.182;8.624;2024-03-06T03:33:41;12.77;;;8.57;;
51010;SDS011;37038;50.182;8.624;2024-03-06T03:39:31;10.63;;;7.75;;
51010;SDS011;37038;50.182;8.624;2024-03-06T03:42:20;10.57;;;7.97;;
51010;SDS011;37038;50.182;8.624;2024-03-06T03:45:16;10.60;;;8.23;;
51010;SDS011;37038;50.182;8.624;2024-03-06T03:48:09;11.30;;;8.67;;
51010;SDS011;37038;50.182;8.624;2024-03-06T03:51:07;12.40;;;8.88;;
51010;SDS011;37038;50.182;8.624;2024-03-06T03:54:17;10.55;;;7.97;;
51010;SDS011;37038;50.182;8.624;2024-03-06T03:57:12;10.85;;;8.57;;
51010;SDS011;37038;50.182;8.624;2024-03-06T04:00:09;12.43;;;8.77;;
51010;SDS011;37038;50.182;8.624;2024-03-06T04:03:16;11.75;;;8.98;;
51010;SDS011;37038;50.182;8.624;2024-03-06T04:06:12;15.13;;;10.73;;
51010;SDS011;37038;50.182;8.624;2024-03-06T04:09:10;13.52;;;9.20;;
51010;SDS011;37038;50.182;8.624;2024-03-06T04:11:59;12.98;;;9.18;;
51010;SDS011;37038;50.182;8.624;2024-03-06T04:14:58;12.50;;;10.23;;
51010;SDS011;37038;50.182;8.624;2024-03-06T04:23:17;13.02;;;9.00;;
51010;SDS011;37038;50.182;8.624;2024-03-06T04:26:23;13.32;;;10.00;;
51010;SDS011;37038;50.182;8.624;2024-03-06T04:29:17;12.90;;;9.95;;
51010;SDS011;37038;50.182;8.624;2024-03-06T04:32:27;13.57;;;10.82;;
51010;SDS011;37038;50.182;8.624;2024-03-06T04:35:29;17.58;;;11.48;;
51010;SDS011;37038;50.182;8.624;2024-03-06T04:38:35;19.88;;;10.98;;
51010;SDS011;37038;50.182;8.624;2024-03-06T04:41:33;19.88;;;12.32;;
51010;SDS011;37038;50.182;8.624;2024-03-06T04:44:47;20.77;;;12.45;;
51010;SDS011;37038;50.182;8.624;2024-03-06T04:47:50;20.13;;;11.70;;
51010;SDS011;37038;50.182;8.624;2024-03-06T04:50:44;22.27;;;13.68;;
51010;SDS011;37038;50.182;8.624;2024-03-06T04:53:40;16.70;;;11.10;;
51010;SDS011;37038;50.182;8.624;2024-03-06T04:56:33;16.90;;;12.07;;
51010;SDS011;37038;50.182;8.624;2024-03-06T04:59:33;16.58;;;12.25;;
51010;SDS011;37038;50.182;8.624;2024-03-06T05:02:24;16.30;;;11.65;;
51010;SDS011;37038;50.182;8.624;2024-03-06T05:05:40;17.83;;;12.20;;
51010;SDS011;37038;50.182;8.624;2024-03-06T05:09:03;19.90;;;11.63;;
51010;SDS011;37038;50.182;8.624;2024-03-06T05:12:22;17.13;;;12.20;;
51010;SDS011;37038;50.182;8.624;2024-03-06T05:15:38;18.90;;;12.52;;
51010;SDS011;37038;50.182;8.624;2024-03-06T05:18:47;16.60;;;12.43;;
51010;SDS011;37038;50.182;8.624;2024-03-06T05:22:17;20.50;;;12.77;;
51010;SDS011;37038;50.182;8.624;2024-03-06T05:25:46;18.83;;;13.30;;
51010;SDS011;37038;50.182;8.624;2024-03-06T05:28:51;17.55;;;13.18;;
51010;SDS011;37038;50.182;8.624;2024-03-06T05:32:08;20.60;;;12.82;;
51010;SDS011;37038;50.182;8.624;2024-03-06T05:35:25;17.90;;;12.77;;
51010;SDS011;37038;50.182;8.624;2024-03-06T05:42:13;20.35;;;14.45;;
51010;SDS011;37038;50.182;8.624;2024-03-06T05:45:43;23.80;;;14.10;;
51010;SDS011;37038;50.182;8.624;2024-03-06T05:48:59;22.63;;;14.23;;
51010;SDS011;37038;50.182;8.624;2024-03-06T05:52:13;25.27;;;16.08;;
51010;SDS011;37038;50.182;8.624;2024-03-06T05:55:38;23.55;;;14.82;;
51010;SDS011;37038;50.182;8.624;2024-03-06T05:58:46;28.73;;;16.08;;
51010;SDS011;37038;50.182;8.624;2024-03-06T06:02:07;22.00;;;15.50;;
51010;SDS011;37038;50.182;8.624;2024-03-06T06:05:40;21.73;;;14.45;;
51010;SDS011;37038;50.182;8.624;2024-03-06T06:09:10;24.90;;;16.40;;
51010;SDS011;37038;50.182;8.624;2024-03-06T06:13:11;24.48;;;15.68;;
51010;SDS011;37038;50.182;8.624;2024-03-06T06:16:22;24.88;;;15.50;;
51010;SDS011;37038;50.182;8.624;2024-03-06T06:19:33;20.33;;;14.20;;
51010;SDS011;37038;50.182;8.624;2024-03-06T06:22:57;23.23;;;15.85;;
51010;SDS011;37038;50.182;8.624;2024-03-06T06:26:42;22.65;;;15.93;;
51010;SDS011;37038;50.182;8.624;2024-03-06T06:34:21;22.15;;;14.90;;
51010;SDS011;37038;50.182;8.624;2024-03-06T06:37:58;20.60;;;15.05;;
51010;SDS011;37038;50.182;8.624;2024-03-06T06:41:41;22.92;;;17.50;;
51010;SDS011;37038;50.182;8.624;2024-03-06T06:45:09;20.63;;;15.73;;
51010;SDS011;37038;50.182;8.624;2024-03-06T06:59:35;19.23;;;14.15;;
51010;SDS011;37038;50.182;8.624;2024-03-06T07:03:39;21.88;;;15.80;;
51010;SDS011;37038;50.182;8.624;2024-03-06T07:27:41;25.70;;;17.58;;
51010;SDS011;37038;50.182;8.624;2024-03-06T07:31:12;20.95;;;15.75;;
51010;SDS011;37038;50.182;8.624;2024-03-06T07:34:53;20.67;;;15.27;;
51010;SDS011;37038;50.182;8.624;2024-03-06T07:42:44;27.27;;;17.65;;
51010;SDS011;37038;50.182;8.624;2024-03-06T07:46:30;31.60;;;19.33;;
51010;SDS011;37038;50.182;8.624;2024-03-06T08:34:33;33.92;;;24.38;;
51010;SDS011;37038;50.182;8.624;2024-03-06T08:57:04;41.60;;;26.50;;
51010;SDS011;37038;50.182;8.624;2024-03-06T09:00:25;39.47;;;26.48;;
51010;SDS011;37038;50.182;8.624;2024-03-06T09:03:44;39.50;;;26.63;;
51010;SDS011;37038;50.182;8.624;2024-03-06T09:06:57;41.08;;;28.45;;
51010;SDS011;37038;50.182;8.624;2024-03-06T09:10:11;38.03;;;27.75;;
51010;SDS011;37038;50.182;8.624;2024-03-06T09:13:27;43.95;;;29.08;;
51010;SDS011;37038;50.182;8.624;2024-03-06T09:16:31;45.03;;;29.60;;
51010;SDS011;37038;50.182;8.624;2024-03-06T09:19:48;47.45;;;30.48;;
51010;SDS011;37038;50.182;8.624;2024-03-06T09:23:02;43.50;;;29.63;;
51010;SDS011;37038;50.182;8.624;2024-03-06T09:26:16;43.17;;;30.05;;
51010;SDS011;37038;50.182;8.624;2024-03-06T09:29:27;46.30;;;29.33;;
51010;SDS011;37038;50.182;8.624;2024-03-06T09:36:26;46.42;;;31.10;;
51010;SDS011;37038;50.182;8.624;2024-03-06T09:43:51;45.17;;;30.98;;
51010;SDS011;37038;50.182;8.624;2024-03-06T09:47:51;43.45;;;30.15;;
51010;SDS011;37038;50.182;8.624;2024-03-06T09:51:41;44.75;;;30.08;;
51010;SDS011;37038;50.182;8.624;2024-03-06T10:22:42;36.38;;;25.75;;
51010;SDS011;37038;50.182;8.624;2024-03-06T10:40:51;28.15;;;20.13;;
51010;SDS011;37038;50.182;8.624;2024-03-06T10:49:11;23.55;;;17.13;;
51010;SDS011;37038;50.182;8.624;2024-03-06T10:52:58;26.80;;;18.15;;
51010;SDS011;37038;50.182;8.624;2024-03-06T10:56:20;25.38;;;18.25;;
51010;SDS011;37038;50.182;8.624;2024-03-06T10:59:53;24.15;;;18.08;;
51010;SDS011;37038;50.182;8.624;2024-03-06T11:03:15;21.13;;;16.70;;
51010;SDS011;37038;50.182;8.624;2024-03-06T11:06:41;21.75;;;17.33;;
51010;SDS011;37038;50.182;8.624;2024-03-06T11:09:58;21.38;;;16.48;;
51010;SDS011;37038;50.182;8.624;2024-03-06T11:12:49;22.80;;;18.60;;
51010;SDS011;37038;50.182;8.624;2024-03-06T11:15:50;22.95;;;17.67;;
51010;SDS011;37038;50.182;8.624;2024-03-06T11:21:45;25.15;;;20.48;;
51010;SDS011;37038;50.182;8.624;2024-03-06T11:24:42;24.90;;;19.45;;
51010;SDS011;37038;50.182;8.624;2024-03-06T11:30:55;27.38;;;21.58;;
51010;SDS011;37038;50.182;8.624;2024-03-06T11:33:58;27.42;;;21.27;;
51010;SDS011;37038;50.182;8.624;2024-03-06T11:36:56;27.83;;;20.15;;
51010;SDS011;37038;50.182;8.624;2024-03-06T11:39:48;26.85;;;21.45;;
51010;SDS011;37038;50.182;8.624;2024-03-06T11:42:50;27.40;;;20.80;;
51010;SDS011;37038;50.182;8.624;2024-03-06T11:46:15;26.08;;;21.10;;
51010;SDS011;37038;50.182;8.624;2024-03-06T11:49:31;25.67;;;21.15;;
51010;SDS011;37038;50.182;8.624;2024-03-06T11:52:27;27.98;;;21.40;;
51010;SDS011;37038;50.182;8.624;2024-03-06T11:55:28;23.42;;;20.35;;
51010;SDS011;37038;50.182;8.624;2024-03-06T11:58:16;27.25;;;22.20;;
51010;SDS011;37038;50.182;8.624;2024-03-06T12:01:12;26.63;;;20.27;;
51010;SDS011;37038;50.182;8.624;2024-03-06T12:04:06;25.70;;;20.33;;
51010;SDS011;37038;50.182;8.624;2024-03-06T12:07:09;26.58;;;21.30;;
51010;SDS011;37038;50.182;8.624;2024-03-06T12:10:04;23.98;;;19.48;;
51010;SDS011;37038;50.182;8.624;2024-03-06T12:13:00;22.58;;;18.10;;
51010;SDS011;37038;50.182;8.624;2024-03-06T12:16:07;22.70;;;18.73;;
51010;SDS011;37038;50.182;8.624;2024-03-06T12:19:05;20.75;;;17.88;;
51010;SDS011;37038;50.182;8.624;2024-03-06T12:22:06;20.17;;;15.75;;
51010;SDS011;37038;50.182;8.624;2024-03-06T12:25:26;19.17;;;15.90;;
51010;SDS011;37038;50.182;8.624;2024-03-06T12:29:09;20.38;;;16.58;;
51010;SDS011;37038;50.182;8.624;2024-03-06T12:35:23;19.13;;;16.67;;
51010;SDS011;37038;50.182;8.624;2024-03-06T12:38:18;22.23;;;17.35;;
51010;SDS011;37038;50.182;8.624;2024-03-06T12:41:16;22.05;;;17.52;;
51010;SDS011;37038;50.182;8.624;2024-03-06T12:44:32;26.15;;;20.77;;
51010;SDS011;37038;50.182;8.624;2024-03-06T12:58:22;32.92;;;22.95;;
51010;SDS011;37038;50.182;8.624;2024-03-06T13:01:26;32.72;;;23.13;;
51010;SDS011;37038;50.182;8.624;2024-03-06T13:05:06;31.45;;;21.80;;
51010;SDS011;37038;50.182;8.624;2024-03-06T13:08:31;30.00;;;21.67;;
51010;SDS011;37038;50.182;8.624;2024-03-06T13:11:30;33.50;;;21.98;;
51010;SDS011;37038;50.182;8.624;2024-03-06T13:14:23;30.80;;;23.00;;
51010;SDS011;37038;50.182;8.624;2024-03-06T13:17:35;32.38;;;21.77;;
51010;SDS011;37038;50.182;8.624;2024-03-06T13:20:41;36.95;;;25.77;;
51010;SDS011;37038;50.182;8.624;2024-03-06T13:23:35;34.35;;;24.02;;
51010;SDS011;37038;50.182;8.624;2024-03-06T13:26:27;34.88;;;23.63;;
51010;SDS011;37038;50.182;8.624;2024-03-06T13:29:27;32.65;;;24.05;;
51010;SDS011;37038;50.182;8.624;2024-03-06T13:32:29;35.33;;;23.35;;
51010;SDS011;37038;50.182;8.624;2024-03-06T13:39:11;30.63;;;22.55;;
51010;SDS011;37038;50.182;8.624;2024-03-06T13:42:18;32.55;;;22.23;;
51010;SDS011;37038;50.182;8.624;2024-03-06T13:45:34;30.23;;;21.20;;
51010;SDS011;37038;50.182;8.624;2024-03-06T13:48:24;32.47;;;22.48;;
51010;SDS011;37038;50.182;8.624;2024-03-06T13:51:22;32.42;;;22.80;;
51010;SDS011;37038;50.182;8.624;2024-03-06T13:54:25;35.25;;;23.65;;
51010;SDS011;37038;50.182;8.624;2024-03-06T13:57:22;29.00;;;20.95;;
51010;SDS011;37038;50.182;8.624;2024-03-06T14:00:56;30.13;;;21.65;;
51010;SDS011;37038;50.182;8.624;2024-03-06T14:04:02;30.20;;;21.35;;
51010;SDS011;37038;50.182;8.624;2024-03-06T14:14:57;27.05;;;20.40;;
51010;SDS011;37038;50.182;8.624;2024-03-06T14:18:29;26.25;;;20.10;;
51010;SDS011;37038;50.182;8.624;2024-03-06T14:25:12;24.38;;;18.10;;
51010;SDS011;37038;50.182;8.624;2024-03-06T14:28:16;26.00;;;18.77;;
51010;SDS011;37038;50.182;8.624;2024-03-06T14:31:50;27.95;;;19.40;;
51010;SDS011;37038;50.182;8.624;2024-03-06T14:34:49;25.42;;;17.70;;
51010;SDS011;37038;50.182;8.624;2024-03-06T14:38:28;25.17;;;18.48;;
51010;SDS011;37038;50.182;8.624;2024-03-06T14:45:07;23.85;;;17.73;;
51010;SDS011;37038;50.182;8.624;2024-03-06T14:52:09;22.73;;;16.75;;
51010;SDS011;37038;50.182;8.624;2024-03-06T14:55:03;25.83;;;18.00;;
51010;SDS011;37038;50.182;8.624;2024-03-06T14:58:13;24.77;;;16.25;;
51010;SDS011;37038;50.182;8.624;2024-03-06T15:01:20;22.45;;;16.40;;
51010;SDS011;37038;50.182;8.624;2024-03-06T15:04:25;21.08;;;15.40;;
51010;SDS011;37038;50.182;8.624;2024-03-06T15:07:28;23.48;;;16.60;;
51010;SDS011;37038;50.182;8.624;2024-03-06T15:10:46;22.30;;;16.67;;
51010;SDS011;37038;50.182;8.624;2024-03-06T15:14:16;21.52;;;16.10;;
51010;SDS011;37038;50.182;8.624;2024-03-06T15:17:39;20.58;;;15.15;;
51010;SDS011;37038;50.182;8.624;2024-03-06T15:20:40;21.35;;;15.23;;
51010;SDS011;37038;50.182;8.624;2024-03-06T15:23:45;22.67;;;16.70;;
51010;SDS011;37038;50.182;8.624;2024-03-06T15:27:07;23.15;;;16.80;;
51010;SDS011;37038;50.182;8.624;2024-03-06T15:30:17;21.90;;;16.80;;
51010;SDS011;37038;50.182;8.624;2024-03-06T15:33:27;22.35;;;16.85;;
51010;SDS011;37038;50.182;8.624;2024-03-06T15:41:14;25.95;;;18.15;;
51010;SDS011;37038;50.182;8.624;2024-03-06T15:44:29;26.75;;;19.02;;
51010;SDS011;37038;50.182;8.624;2024-03-06T15:47:48;23.63;;;18.10;;
51010;SDS011;37038;50.182;8.624;2024-03-06T15:50:50;26.00;;;18.52;;
51010;SDS011;37038;50.182;8.624;2024-03-06T15:54:05;26.25;;;19.88;;
51010;SDS011;37038;50.182;8.624;2024-03-06T15:57:16;27.08;;;19.42;;
51010;SDS011;37038;50.182;8.624;2024-03-06T16:00:04;27.95;;;19.85;;
51010;SDS011;37038;50.182;8.624;2024-03-06T16:03:09;28.23;;;20.48;;
51010;SDS011;37038;50.182;8.624;2024-03-06T16:06:09;28.77;;;20.45;;
51010;SDS011;37038;50.182;8.624;2024-03-06T16:09:54;30.05;;;19.35;;
51010;SDS011;37038;50.182;8.624;2024-03-06T16:12:56;26.08;;;19.30;;
51010;SDS011;37038;50.182;8.624;2024-03-06T16:15:55;29.27;;;20.33;;
51010;SDS011;37038;50.182;8.624;2024-03-06T16:19:04;30.33;;;20.48;;
51010;SDS011;37038;50.182;8.624;2024-03-06T16:22:31;27.05;;;18.88;;
51010;SDS011;37038;50.182;8.624;2024-03-06T16:25:37;28.48;;;19.88;;
51010;SDS011;37038;50.182;8.624;2024-03-06T16:28:35;26.70;;;19.98;;
51010;SDS011;37038;50.182;8.624;2024-03-06T16:35:09;34.40;;;22.75;;
51010;SDS011;37038;50.182;8.624;2024-03-06T16:38:11;33.13;;;20.85;;
51010;SDS011;37038;50.182;8.624;2024-03-06T16:41:34;34.85;;;22.77;;
51010;SDS011;37038;50.182;8.624;2024-03-06T16:44:43;34.30;;;22.58;;
51010;SDS011;37038;50.182;8.624;2024-03-06T16:47:57;32.78;;;24.55;;
51010;SDS011;37038;50.182;8.624;2024-03-06T16:50:56;38.55;;;23.83;;
51010;SDS011;37038;50.182;8.624;2024-03-06T16:54:00;35.25;;;24.25;;
51010;SDS011;37038;50.182;8.624;2024-03-06T16:57:17;37.40;;;24.60;;
51010;SDS011;37038;50.182;8.624;2024-03-06T17:00:27;39.03;;;25.35;;
51010;SDS011;37038;50.182;8.624;2024-03-06T17:03:29;44.38;;;27.20;;
51010;SDS011;37038;50.182;8.624;2024-03-06T17:06:51;46.40;;;27.95;;
51010;SDS011;37038;50.182;8.624;2024-03-06T17:10:06;45.50;;;28.88;;
51010;SDS011;37038;50.182;8.624;2024-03-06T17:13:16;51.53;;;32.60;;
51010;SDS011;37038;50.182;8.624;2024-03-06T17:16:46;48.05;;;31.17;;
51010;SDS011;37038;50.182;8.624;2024-03-06T17:20:21;50.45;;;31.80;;
51010;SDS011;37038;50.182;8.624;2024-03-06T17:23:56;53.33;;;32.25;;
51010;SDS011;37038;50.182;8.624;2024-03-06T17:31:24;49.85;;;32.58;;
51010;SDS011;37038;50.182;8.624;2024-03-06T17:35:07;51.15;;;32.65;;
51010;SDS011;37038;50.182;8.624;2024-03-06T17:38:17;56.20;;;35.42;;
51010;SDS011;37038;50.182;8.624;2024-03-06T17:46:30;51.80;;;31.05;;
51010;SDS011;37038;50.182;8.624;2024-03-06T17:50:38;54.22;;;34.83;;
51010;SDS011;37038;50.182;8.624;2024-03-06T19:52:42;76.03;;;46.03;;
51010;SDS011;37038;50.182;8.624;2024-03-06T19:56:36;71.95;;;45.35;;
51010;SDS011;37038;50.182;8.624;2024-03-06T20:07:53;69.50;;;45.55;;
51010;SDS011;37038;50.182;8.624;2024-03-06T20:24:12;75.45;;;44.70;;
51010;SDS011;37038;50.182;8.624;2024-03-06T23:12:19;66.68;;;43.22;;
51010;SDS011;37038;50.182;8.624;2024-03-06T23:19:43;66.85;;;42.17;;
51010;SDS011;37038;50.182;8.624;2024-03-06T23:23:11;68.07;;;41.83;;
51010;SDS011;37038;50.182;8.624;2024-03-06T23:27:08;68.43;;;42.38;;
51010;SDS011;37038;50.182;8.624;2024-03-06T23:34:36;72.97;;;45.55;;
51010;SDS011;37038;50.182;8.624;2024-03-06T23:42:46;68.70;;;44.20;;
51010;SDS011;37038;50.182;8.624;2024-03-06T23:46:19;71.20;;;43.65;;
